sensor_id;sensor_type;location;lat;lon;timestamp;P1;durP1;ratioP1;P2;durP2;ratioP2
39324;SDS011;25037;49.488;9.900;2024-03-07T00:00:06;31.33;;;13.90;;
39324;SDS011;25037;49.488;9.900;2024-03-07T00:02:41;35.50;;;15.70;;
39324;SDS011;25037;49.488;9.900;2024-03-07T00:05:09;30.20;;;14.23;;
39324;SDS011;25037;49.488;9.900;2024-03-07T00:07:37;32.95;;;14.98;;
39324;SDS011;25037;49.488;9.900;2024-03-07T00:10:03;34.50;;;14.63;;
39324;SDS011;25037;49.488;9.900;2024-03-07T00:12:36;32.58;;;15.10;;
39324;SDS011;25037;49.488;9.900;2024-03-07T00:17:34;31.83;;;14.07;;
39324;SDS011;25037;49.488;9.900;2024-03-07T00:20:02;31.70;;;15.07;;
39324;SDS011;25037;49.488;9.900;2024-03-07T00:22:35;33.75;;;15.23;;
39324;SDS011;25037;49.488;9.900;2024-03-07T00:25:02;32.47;;;14.38;;
39324;SDS011;25037;49.488;9.900;2024-03-07T00:27:33;36.88;;;14.35;;
39324;SDS011;25037;49.488;9.900;2024-03-07T00:29:59;27.58;;;13.00;;
39324;SDS011;25037;49.488;9.900;2024-03-07T00:32:26;34.47;;;15.38;;
39324;SDS011;25037;49.488;9.900;2024-03-07T00:34:56;31.65;;;13.85;;
39324;SDS011;25037;49.488;9.900;2024-03-07T00:37:25;28.85;;;12.65;;
39324;SDS011;25037;49.488;9.900;2024-03-07T00:39:52;34.90;;;14.10;;
39324;SDS011;25037;49.488;9.900;2024-03-07T00:42:19;30.90;;;13.95;;
39324;SDS011;25037;49.488;9.900;2024-03-07T00:44:45;29.35;;;13.82;;
39324;SDS011;25037;49.488;9.900;2024-03-07T00:49:39;29.70;;;13.02;;
39324;SDS011;25037;49.488;9.900;2024-03-07T00:52:06;32.75;;;15.00;;
39324;SDS011;25037;49.488;9.900;2024-03-07T00:54:33;38.03;;;14.80;;
39324;SDS011;25037;49.488;9.900;2024-03-07T00:56:59;31.27;;;14.15;;
39324;SDS011;25037;49.488;9.900;2024-03-07T00:59:26;35.95;;;14.80;;
39324;SDS011;25037;49.488;9.900;2024-03-07T01:01:53;29.98;;;13.52;;
39324;SDS011;25037;49.488;9.900;2024-03-07T01:04:20;32.42;;;13.88;;
39324;SDS011;25037;49.488;9.900;2024-03-07T01:06:46;32.38;;;14.98;;
39324;SDS011;25037;49.488;9.900;2024-03-07T01:09:13;31.40;;;13.77;;
39324;SDS011;25037;49.488;9.900;2024-03-07T01:11:42;28.80;;;13.80;;
39324;SDS011;25037;49.488;9.900;2024-03-07T01:14:11;30.58;;;13.10;;
39324;SDS011;25037;49.488;9.900;2024-03-07T01:16:39;27.77;;;12.65;;
39324;SDS011;25037;49.488;9.900;2024-03-07T01:19:06;33.05;;;13.70;;
39324;SDS011;25037;49.488;9.900;2024-03-07T01:21:34;31.42;;;13.70;;
39324;SDS011;25037;49.488;9.900;2024-03-07T01:24:04;31.00;;;13.20;;
39324;SDS011;25037;49.488;9.900;2024-03-07T01:26:32;32.30;;;14.32;;
39324;SDS011;25037;49.488;9.900;2024-03-07T01:29:01;31.13;;;14.27;;
39324;SDS011;25037;49.488;9.900;2024-03-07T01:31:28;30.55;;;13.43;;
39324;SDS011;25037;49.488;9.900;2024-03-07T01:33:55;33.47;;;13.13;;
39324;SDS011;25037;49.488;9.900;2024-03-07T01:36:22;35.88;;;15.07;;
39324;SDS011;25037;49.488;9.900;2024-03-07T01:38:48;34.33;;;14.95;;
39324;SDS011;25037;49.488;9.900;2024-03-07T01:41:15;32.05;;;13.82;;
39324;SDS011;25037;49.488;9.900;2024-03-07T01:43:42;30.73;;;13.65;;
39324;SDS011;25037;49.488;9.900;2024-03-07T01:46:09;34.63;;;15.20;;
39324;SDS011;25037;49.488;9.900;2024-03-07T01:48:37;34.83;;;13.75;;
39324;SDS011;25037;49.488;9.900;2024-03-07T01:51:04;34.25;;;14.25;;
39324;SDS011;25037;49.488;9.900;2024-03-07T01:55:59;37.92;;;15.23;;
39324;SDS011;25037;49.488;9.900;2024-03-07T01:58:28;37.88;;;14.30;;
39324;SDS011;25037;49.488;9.900;2024-03-07T02:00:58;30.08;;;13.55;;
39324;SDS011;25037;49.488;9.900;2024-03-07T02:03:25;32.67;;;14.85;;
39324;SDS011;25037;49.488;9.900;2024-03-07T02:05:52;32.60;;;14.00;;
39324;SDS011;25037;49.488;9.900;2024-03-07T02:08:19;33.13;;;13.63;;
39324;SDS011;25037;49.488;9.900;2024-03-07T02:10:46;31.13;;;13.45;;
39324;SDS011;25037;49.488;9.900;2024-03-07T02:13:13;30.05;;;12.73;;
39324;SDS011;25037;49.488;9.900;2024-03-07T02:15:40;32.92;;;14.80;;
39324;SDS011;25037;49.488;9.900;2024-03-07T02:18:09;37.55;;;14.20;;
39324;SDS011;25037;49.488;9.900;2024-03-07T02:20:36;29.08;;;12.77;;
39324;SDS011;25037;49.488;9.900;2024-03-07T02:23:03;32.30;;;13.77;;
39324;SDS011;25037;49.488;9.900;2024-03-07T02:25:30;27.85;;;12.80;;
39324;SDS011;25037;49.488;9.900;2024-03-07T02:27:58;31.27;;;12.93;;
39324;SDS011;25037;49.488;9.900;2024-03-07T02:30:25;30.55;;;13.68;;
39324;SDS011;25037;49.488;9.900;2024-03-07T02:32:51;26.63;;;12.05;;
39324;SDS011;25037;49.488;9.900;2024-03-07T02:35:21;34.88;;;13.45;;
39324;SDS011;25037;49.488;9.900;2024-03-07T02:37:50;24.85;;;10.85;;
39324;SDS011;25037;49.488;9.900;2024-03-07T02:40:17;32.78;;;13.63;;
39324;SDS011;25037;49.488;9.900;2024-03-07T02:42:43;31.17;;;12.60;;
39324;SDS011;25037;49.488;9.900;2024-03-07T02:45:10;32.28;;;12.27;;
39324;SDS011;25037;49.488;9.900;2024-03-07T02:47:40;32.45;;;14.10;;
39324;SDS011;25037;49.488;9.900;2024-03-07T02:50:08;28.10;;;12.05;;
39324;SDS011;25037;49.488;9.900;2024-03-07T02:52:35;33.83;;;14.18;;
39324;SDS011;25037;49.488;9.900;2024-03-07T02:55:02;30.58;;;13.00;;
39324;SDS011;25037;49.488;9.900;2024-03-07T02:57:31;33.20;;;13.50;;
39324;SDS011;25037;49.488;9.900;2024-03-07T02:59:58;30.27;;;13.32;;
39324;SDS011;25037;49.488;9.900;2024-03-07T03:02:25;30.88;;;12.43;;
39324;SDS011;25037;49.488;9.900;2024-03-07T03:04:52;31.48;;;13.07;;
39324;SDS011;25037;49.488;9.900;2024-03-07T03:07:18;30.60;;;12.50;;
39324;SDS011;25037;49.488;9.900;2024-03-07T03:09:45;23.38;;;10.25;;
39324;SDS011;25037;49.488;9.900;2024-03-07T03:12:13;26.77;;;11.65;;
39324;SDS011;25037;49.488;9.900;2024-03-07T03:14:39;26.70;;;11.45;;
39324;SDS011;25037;49.488;9.900;2024-03-07T03:17:06;28.25;;;11.75;;
39324;SDS011;25037;49.488;9.900;2024-03-07T03:19:35;25.50;;;11.02;;
39324;SDS011;25037;49.488;9.900;2024-03-07T03:22:02;28.63;;;11.88;;
39324;SDS011;25037;49.488;9.900;2024-03-07T03:24:29;25.15;;;10.60;;
39324;SDS011;25037;49.488;9.900;2024-03-07T03:26:57;26.63;;;11.35;;
39324;SDS011;25037;49.488;9.900;2024-03-07T03:29:23;30.33;;;12.25;;
39324;SDS011;25037;49.488;9.900;2024-03-07T03:31:50;27.40;;;11.55;;
39324;SDS011;25037;49.488;9.900;2024-03-07T03:34:17;26.77;;;12.07;;
39324;SDS011;25037;49.488;9.900;2024-03-07T03:36:44;29.15;;;11.70;;
39324;SDS011;25037;49.488;9.900;2024-03-07T03:39:10;29.20;;;12.60;;
39324;SDS011;25037;49.488;9.900;2024-03-07T03:41:39;34.33;;;13.27;;
39324;SDS011;25037;49.488;9.900;2024-03-07T03:44:06;29.73;;;12.57;;
39324;SDS011;25037;49.488;9.900;2024-03-07T03:46:33;28.75;;;12.80;;
39324;SDS011;25037;49.488;9.900;2024-03-07T03:49:00;30.95;;;13.27;;
39324;SDS011;25037;49.488;9.900;2024-03-07T03:51:27;26.15;;;10.52;;
39324;SDS011;25037;49.488;9.900;2024-03-07T03:53:54;31.83;;;13.65;;
39324;SDS011;25037;49.488;9.900;2024-03-07T03:56:20;30.23;;;12.07;;
39324;SDS011;25037;49.488;9.900;2024-03-07T03:58:47;32.92;;;13.50;;
39324;SDS011;25037;49.488;9.900;2024-03-07T04:01:14;28.27;;;11.98;;
39324;SDS011;25037;49.488;9.900;2024-03-07T04:03:42;32.65;;;13.00;;
39324;SDS011;25037;49.488;9.900;2024-03-07T04:06:13;28.75;;;11.88;;
39324;SDS011;25037;49.488;9.900;2024-03-07T04:08:40;26.35;;;11.15;;
39324;SDS011;25037;49.488;9.900;2024-03-07T04:11:07;31.52;;;13.45;;
39324;SDS011;25037;49.488;9.900;2024-03-07T04:13:36;30.40;;;12.88;;
39324;SDS011;25037;49.488;9.900;2024-03-07T04:16:04;31.08;;;12.63;;
39324;SDS011;25037;49.488;9.900;2024-03-07T04:18:31;31.42;;;12.60;;
39324;SDS011;25037;49.488;9.900;2024-03-07T04:20:58;37.70;;;14.23;;
39324;SDS011;25037;49.488;9.900;2024-03-07T04:23:26;31.85;;;12.35;;
39324;SDS011;25037;49.488;9.900;2024-03-07T04:25:54;30.50;;;12.73;;
39324;SDS011;25037;49.488;9.900;2024-03-07T04:28:22;31.95;;;13.23;;
39324;SDS011;25037;49.488;9.900;2024-03-07T04:30:49;28.10;;;12.38;;
39324;SDS011;25037;49.488;9.900;2024-03-07T04:33:15;29.38;;;12.20;;
39324;SDS011;25037;49.488;9.900;2024-03-07T04:35:42;32.25;;;12.75;;
39324;SDS011;25037;49.488;9.900;2024-03-07T04:38:09;28.55;;;12.90;;
39324;SDS011;25037;49.488;9.900;2024-03-07T04:40:41;30.88;;;12.68;;
39324;SDS011;25037;49.488;9.900;2024-03-07T04:43:08;28.90;;;12.43;;
39324;SDS011;25037;49.488;9.900;2024-03-07T04:45:35;29.95;;;13.40;;
39324;SDS011;25037;49.488;9.900;2024-03-07T04:48:03;32.45;;;13.50;;
39324;SDS011;25037;49.488;9.900;2024-03-07T04:50:31;30.17;;;12.77;;
39324;SDS011;25037;49.488;9.900;2024-03-07T04:52:58;27.83;;;12.13;;
39324;SDS011;25037;49.488;9.900;2024-03-07T04:55:24;32.20;;;12.82;;
39324;SDS011;25037;49.488;9.900;2024-03-07T04:57:51;28.20;;;12.82;;
39324;SDS011;25037;49.488;9.900;2024-03-07T05:00:18;29.05;;;12.30;;
39324;SDS011;25037;49.488;9.900;2024-03-07T05:02:48;28.00;;;11.82;;
39324;SDS011;25037;49.488;9.900;2024-03-07T05:05:18;27.83;;;12.32;;
39324;SDS011;25037;49.488;9.900;2024-03-07T05:07:50;28.00;;;11.80;;
39324;SDS011;25037;49.488;9.900;2024-03-07T05:10:17;30.40;;;12.35;;
39324;SDS011;25037;49.488;9.900;2024-03-07T05:12:44;32.78;;;12.38;;
39324;SDS011;25037;49.488;9.900;2024-03-07T05:15:11;33.80;;;11.80;;
39324;SDS011;25037;49.488;9.900;2024-03-07T05:17:37;26.27;;;12.65;;
39324;SDS011;25037;49.488;9.900;2024-03-07T05:20:06;27.77;;;11.63;;
39324;SDS011;25037;49.488;9.900;2024-03-07T05:22:36;28.13;;;12.70;;
39324;SDS011;25037;49.488;9.900;2024-03-07T05:25:06;26.83;;;11.57;;
39324;SDS011;25037;49.488;9.900;2024-03-07T05:27:33;27.17;;;11.68;;
39324;SDS011;25037;49.488;9.900;2024-03-07T05:30:02;29.17;;;12.70;;
39324;SDS011;25037;49.488;9.900;2024-03-07T05:32:35;31.25;;;13.65;;
39324;SDS011;25037;49.488;9.900;2024-03-07T05:35:02;28.20;;;12.68;;
39324;SDS011;25037;49.488;9.900;2024-03-07T05:37:29;28.98;;;12.07;;
39324;SDS011;25037;49.488;9.900;2024-03-07T05:39:57;28.05;;;11.98;;
39324;SDS011;25037;49.488;9.900;2024-03-07T05:42:24;29.10;;;12.07;;
39324;SDS011;25037;49.488;9.900;2024-03-07T05:44:52;30.70;;;12.25;;
39324;SDS011;25037;49.488;9.900;2024-03-07T05:47:20;29.52;;;12.02;;
39324;SDS011;25037;49.488;9.900;2024-03-07T05:49:48;30.73;;;13.77;;
39324;SDS011;25037;49.488;9.900;2024-03-07T05:52:15;36.20;;;13.80;;
39324;SDS011;25037;49.488;9.900;2024-03-07T05:54:42;27.30;;;12.35;;
39324;SDS011;25037;49.488;9.900;2024-03-07T05:57:10;29.60;;;13.43;;
39324;SDS011;25037;49.488;9.900;2024-03-07T05:59:38;31.83;;;13.77;;
39324;SDS011;25037;49.488;9.900;2024-03-07T06:09:26;23.60;;;11.05;;
39324;SDS011;25037;49.488;9.900;2024-03-07T06:11:53;28.17;;;12.50;;
39324;SDS011;25037;49.488;9.900;2024-03-07T06:14:19;25.65;;;11.13;;
39324;SDS011;25037;49.488;9.900;2024-03-07T06:16:46;29.92;;;11.80;;
39324;SDS011;25037;49.488;9.900;2024-03-07T06:19:13;30.05;;;12.88;;
39324;SDS011;25037;49.488;9.900;2024-03-07T06:21:40;27.42;;;11.93;;
39324;SDS011;25037;49.488;9.900;2024-03-07T06:24:08;30.70;;;13.48;;
39324;SDS011;25037;49.488;9.900;2024-03-07T06:26:37;32.65;;;12.63;;
39324;SDS011;25037;49.488;9.900;2024-03-07T06:29:10;30.13;;;13.18;;
39324;SDS011;25037;49.488;9.900;2024-03-07T06:31:42;28.40;;;13.02;;
39324;SDS011;25037;49.488;9.900;2024-03-07T06:34:09;28.88;;;12.68;;
39324;SDS011;25037;49.488;9.900;2024-03-07T06:36:36;29.90;;;12.40;;
39324;SDS011;25037;49.488;9.900;2024-03-07T06:41:33;31.67;;;12.45;;
39324;SDS011;25037;49.488;9.900;2024-03-07T06:44:00;28.15;;;12.80;;
39324;SDS011;25037;49.488;9.900;2024-03-07T06:48:55;27.85;;;11.13;;
39324;SDS011;25037;49.488;9.900;2024-03-07T06:51:25;25.48;;;11.63;;
39324;SDS011;25037;49.488;9.900;2024-03-07T06:53:52;27.00;;;12.05;;
39324;SDS011;25037;49.488;9.900;2024-03-07T06:56:18;28.48;;;12.18;;
39324;SDS011;25037;49.488;9.900;2024-03-07T06:58:45;25.85;;;11.98;;
39324;SDS011;25037;49.488;9.900;2024-03-07T07:01:13;26.20;;;11.82;;
39324;SDS011;25037;49.488;9.900;2024-03-07T07:03:42;27.48;;;12.68;;
39324;SDS011;25037;49.488;9.900;2024-03-07T07:06:09;29.42;;;12.32;;
39324;SDS011;25037;49.488;9.900;2024-03-07T07:08:37;29.02;;;12.77;;
39324;SDS011;25037;49.488;9.900;2024-03-07T07:11:04;32.40;;;14.32;;
39324;SDS011;25037;49.488;9.900;2024-03-07T07:13:30;32.38;;;14.77;;
39324;SDS011;25037;49.488;9.900;2024-03-07T07:15:57;27.77;;;12.75;;
39324;SDS011;25037;49.488;9.900;2024-03-07T07:18:25;27.33;;;11.80;;
39324;SDS011;25037;49.488;9.900;2024-03-07T07:20:51;24.15;;;11.43;;
39324;SDS011;25037;49.488;9.900;2024-03-07T07:23:18;25.90;;;11.40;;
39324;SDS011;25037;49.488;9.900;2024-03-07T07:25:46;27.30;;;12.18;;
39324;SDS011;25037;49.488;9.900;2024-03-07T07:28:13;27.50;;;12.35;;
39324;SDS011;25037;49.488;9.900;2024-03-07T07:30:41;23.83;;;12.07;;
39324;SDS011;25037;49.488;9.900;2024-03-07T07:33:11;26.48;;;11.55;;
39324;SDS011;25037;49.488;9.900;2024-03-07T07:35:39;24.88;;;11.65;;
39324;SDS011;25037;49.488;9.900;2024-03-07T07:38:07;21.75;;;11.50;;
39324;SDS011;25037;49.488;9.900;2024-03-07T07:40:36;19.52;;;10.05;;
39324;SDS011;25037;49.488;9.900;2024-03-07T07:43:03;19.95;;;10.38;;
39324;SDS011;25037;49.488;9.900;2024-03-07T07:45:30;21.33;;;10.45;;
39324;SDS011;25037;49.488;9.900;2024-03-07T07:47:59;18.58;;;9.18;;
39324;SDS011;25037;49.488;9.900;2024-03-07T07:50:26;22.25;;;10.50;;
39324;SDS011;25037;49.488;9.900;2024-03-07T07:52:53;26.20;;;10.35;;
39324;SDS011;25037;49.488;9.900;2024-03-07T07:55:24;16.92;;;7.85;;
39324;SDS011;25037;49.488;9.900;2024-03-07T07:57:53;20.23;;;10.45;;
39324;SDS011;25037;49.488;9.900;2024-03-07T08:00:22;20.45;;;9.85;;
39324;SDS011;25037;49.488;9.900;2024-03-07T08:05:24;19.70;;;8.80;;
39324;SDS011;25037;49.488;9.900;2024-03-07T08:07:54;18.65;;;8.50;;
39324;SDS011;25037;49.488;9.900;2024-03-07T08:10:33;19.77;;;8.38;;
39324;SDS011;25037;49.488;9.900;2024-03-07T08:13:01;13.95;;;6.68;;
39324;SDS011;25037;49.488;9.900;2024-03-07T08:15:30;16.42;;;8.15;;
39324;SDS011;25037;49.488;9.900;2024-03-07T08:17:57;14.43;;;6.50;;
39324;SDS011;25037;49.488;9.900;2024-03-07T08:20:26;16.77;;;8.30;;
39324;SDS011;25037;49.488;9.900;2024-03-07T08:22:54;18.77;;;9.10;;
39324;SDS011;25037;49.488;9.900;2024-03-07T08:25:22;18.58;;;8.35;;
39324;SDS011;25037;49.488;9.900;2024-03-07T08:27:51;18.45;;;8.63;;
39324;SDS011;25037;49.488;9.900;2024-03-07T08:30:19;19.35;;;9.48;;
39324;SDS011;25037;49.488;9.900;2024-03-07T08:35:18;19.27;;;8.38;;
39324;SDS011;25037;49.488;9.900;2024-03-07T08:40:19;19.83;;;9.23;;
39324;SDS011;25037;49.488;9.900;2024-03-07T08:42:49;19.98;;;8.98;;
39324;SDS011;25037;49.488;9.900;2024-03-07T08:45:18;18.02;;;8.77;;
39324;SDS011;25037;49.488;9.900;2024-03-07T08:47:46;18.58;;;9.23;;
39324;SDS011;25037;49.488;9.900;2024-03-07T08:50:14;19.60;;;8.52;;
39324;SDS011;25037;49.488;9.900;2024-03-07T08:52:44;19.17;;;8.52;;
39324;SDS011;25037;49.488;9.900;2024-03-07T08:55:12;19.55;;;9.40;;
39324;SDS011;25037;49.488;9.900;2024-03-07T08:57:41;18.42;;;9.90;;
39324;SDS011;25037;49.488;9.900;2024-03-07T09:00:10;17.67;;;9.32;;
39324;SDS011;25037;49.488;9.900;2024-03-07T09:02:38;18.70;;;8.75;;
39324;SDS011;25037;49.488;9.900;2024-03-07T09:05:05;18.48;;;9.40;;
39324;SDS011;25037;49.488;9.900;2024-03-07T09:07:32;16.92;;;8.57;;
39324;SDS011;25037;49.488;9.900;2024-03-07T09:09:59;16.40;;;8.93;;
39324;SDS011;25037;49.488;9.900;2024-03-07T09:12:26;19.33;;;9.43;;
39324;SDS011;25037;49.488;9.900;2024-03-07T09:14:53;19.63;;;8.82;;
39324;SDS011;25037;49.488;9.900;2024-03-07T09:17:22;22.40;;;9.75;;
39324;SDS011;25037;49.488;9.900;2024-03-07T09:19:49;21.23;;;8.80;;
39324;SDS011;25037;49.488;9.900;2024-03-07T09:22:16;17.13;;;8.40;;
39324;SDS011;25037;49.488;9.900;2024-03-07T09:24:42;18.55;;;9.90;;
39324;SDS011;25037;49.488;9.900;2024-03-07T09:27:09;18.77;;;9.13;;
39324;SDS011;25037;49.488;9.900;2024-03-07T09:29:36;16.85;;;8.60;;
39324;SDS011;25037;49.488;9.900;2024-03-07T09:34:29;19.92;;;8.50;;
39324;SDS011;25037;49.488;9.900;2024-03-07T09:36:57;15.68;;;7.45;;
39324;SDS011;25037;49.488;9.900;2024-03-07T09:39:25;19.05;;;9.82;;
39324;SDS011;25037;49.488;9.900;2024-03-07T09:41:53;18.65;;;9.68;;
39324;SDS011;25037;49.488;9.900;2024-03-07T09:44:21;20.08;;;10.05;;
39324;SDS011;25037;49.488;9.900;2024-03-07T09:46:53;17.52;;;9.43;;
39324;SDS011;25037;49.488;9.900;2024-03-07T09:49:24;18.20;;;9.18;;
39324;SDS011;25037;49.488;9.900;2024-03-07T09:51:54;19.13;;;9.63;;
39324;SDS011;25037;49.488;9.900;2024-03-07T09:54:23;19.67;;;9.52;;
39324;SDS011;25037;49.488;9.900;2024-03-07T09:56:51;16.58;;;8.75;;
39324;SDS011;25037;49.488;9.900;2024-03-07T09:59:20;13.90;;;7.68;;
39324;SDS011;25037;49.488;9.900;2024-03-07T10:01:54;15.75;;;8.50;;
39324;SDS011;25037;49.488;9.900;2024-03-07T10:04:37;17.10;;;9.25;;
39324;SDS011;25037;49.488;9.900;2024-03-07T10:07:14;17.08;;;8.73;;
39324;SDS011;25037;49.488;9.900;2024-03-07T10:09:42;17.83;;;9.43;;
39324;SDS011;25037;49.488;9.900;2024-03-07T10:12:09;19.25;;;9.25;;
39324;SDS011;25037;49.488;9.900;2024-03-07T10:14:38;16.73;;;7.80;;
39324;SDS011;25037;49.488;9.900;2024-03-07T10:17:15;16.38;;;9.00;;
39324;SDS011;25037;49.488;9.900;2024-03-07T10:19:46;17.90;;;8.30;;
39324;SDS011;25037;49.488;9.900;2024-03-07T10:22:14;18.75;;;10.15;;
39324;SDS011;25037;49.488;9.900;2024-03-07T10:24:49;15.93;;;8.80;;
39324;SDS011;25037;49.488;9.900;2024-03-07T10:27:22;16.77;;;7.80;;
39324;SDS011;25037;49.488;9.900;2024-03-07T10:29:51;18.30;;;9.25;;
39324;SDS011;25037;49.488;9.900;2024-03-07T10:32:19;17.83;;;9.25;;
39324;SDS011;25037;49.488;9.900;2024-03-07T10:34:47;17.40;;;8.38;;
39324;SDS011;25037;49.488;9.900;2024-03-07T10:37:14;17.13;;;8.68;;
39324;SDS011;25037;49.488;9.900;2024-03-07T10:39:47;16.15;;;8.20;;
39324;SDS011;25037;49.488;9.900;2024-03-07T10:42:16;16.50;;;8.88;;
39324;SDS011;25037;49.488;9.900;2024-03-07T10:44:44;17.85;;;7.63;;
39324;SDS011;25037;49.488;9.900;2024-03-07T10:47:18;15.82;;;7.80;;
39324;SDS011;25037;49.488;9.900;2024-03-07T10:49:48;15.88;;;9.00;;
39324;SDS011;25037;49.488;9.900;2024-03-07T10:52:34;15.68;;;8.05;;
39324;SDS011;25037;49.488;9.900;2024-03-07T10:55:18;15.02;;;8.75;;
39324;SDS011;25037;49.488;9.900;2024-03-07T10:58:05;17.23;;;8.40;;
39324;SDS011;25037;49.488;9.900;2024-03-07T11:00:37;13.32;;;7.85;;
39324;SDS011;25037;49.488;9.900;2024-03-07T11:03:11;11.35;;;6.47;;
39324;SDS011;25037;49.488;9.900;2024-03-07T11:05:40;15.43;;;8.60;;
39324;SDS011;25037;49.488;9.900;2024-03-07T11:08:09;14.32;;;8.07;;
39324;SDS011;25037;49.488;9.900;2024-03-07T11:10:40;14.82;;;8.63;;
39324;SDS011;25037;49.488;9.900;2024-03-07T11:13:08;16.35;;;9.13;;
39324;SDS011;25037;49.488;9.900;2024-03-07T11:15:39;13.48;;;7.80;;
39324;SDS011;25037;49.488;9.900;2024-03-07T11:18:08;13.68;;;7.15;;
39324;SDS011;25037;49.488;9.900;2024-03-07T11:20:37;14.55;;;7.72;;
39324;SDS011;25037;49.488;9.900;2024-03-07T11:26:10;16.88;;;7.75;;
39324;SDS011;25037;49.488;9.900;2024-03-07T11:28:40;16.08;;;7.82;;
39324;SDS011;25037;49.488;9.900;2024-03-07T11:31:08;15.65;;;8.30;;
39324;SDS011;25037;49.488;9.900;2024-03-07T11:36:44;14.88;;;8.57;;
39324;SDS011;25037;49.488;9.900;2024-03-07T11:42:20;14.68;;;7.90;;
39324;SDS011;25037;49.488;9.900;2024-03-07T11:47:25;13.15;;;7.68;;
39324;SDS011;25037;49.488;9.900;2024-03-07T11:49:56;16.08;;;7.50;;
39324;SDS011;25037;49.488;9.900;2024-03-07T11:52:24;12.15;;;6.40;;
39324;SDS011;25037;49.488;9.900;2024-03-07T11:54:53;16.27;;;8.52;;
39324;SDS011;25037;49.488;9.900;2024-03-07T11:57:30;12.27;;;6.00;;
39324;SDS011;25037;49.488;9.900;2024-03-07T12:00:00;12.88;;;6.43;;
39324;SDS011;25037;49.488;9.900;2024-03-07T12:02:36;14.93;;;7.95;;
39324;SDS011;25037;49.488;9.900;2024-03-07T12:05:04;15.85;;;8.18;;
39324;SDS011;25037;49.488;9.900;2024-03-07T12:07:32;14.68;;;7.93;;
39324;SDS011;25037;49.488;9.900;2024-03-07T12:10:00;19.67;;;8.40;;
39324;SDS011;25037;49.488;9.900;2024-03-07T12:12:29;19.45;;;7.63;;
39324;SDS011;25037;49.488;9.900;2024-03-07T12:14:57;14.32;;;7.43;;
39324;SDS011;25037;49.488;9.900;2024-03-07T12:17:24;13.52;;;6.88;;
39324;SDS011;25037;49.488;9.900;2024-03-07T12:19:51;16.05;;;8.98;;
39324;SDS011;25037;49.488;9.900;2024-03-07T12:25:01;16.52;;;8.32;;
39324;SDS011;25037;49.488;9.900;2024-03-07T12:27:29;15.93;;;7.63;;
39324;SDS011;25037;49.488;9.900;2024-03-07T12:29:56;14.75;;;7.88;;
39324;SDS011;25037;49.488;9.900;2024-03-07T12:32:23;14.95;;;8.20;;
39324;SDS011;25037;49.488;9.900;2024-03-07T12:34:52;13.77;;;8.00;;
39324;SDS011;25037;49.488;9.900;2024-03-07T12:37:19;17.30;;;8.65;;
39324;SDS011;25037;49.488;9.900;2024-03-07T12:39:53;16.83;;;8.18;;
39324;SDS011;25037;49.488;9.900;2024-03-07T12:42:27;13.85;;;7.45;;
39324;SDS011;25037;49.488;9.900;2024-03-07T12:44:57;15.65;;;7.85;;
39324;SDS011;25037;49.488;9.900;2024-03-07T12:47:25;16.10;;;8.13;;
39324;SDS011;25037;49.488;9.900;2024-03-07T12:49:52;17.15;;;7.63;;
39324;SDS011;25037;49.488;9.900;2024-03-07T12:52:19;15.90;;;7.85;;
39324;SDS011;25037;49.488;9.900;2024-03-07T12:54:46;16.17;;;7.65;;
39324;SDS011;25037;49.488;9.900;2024-03-07T12:57:14;15.60;;;7.30;;
39324;SDS011;25037;49.488;9.900;2024-03-07T12:59:41;14.43;;;7.32;;
39324;SDS011;25037;49.488;9.900;2024-03-07T13:02:08;14.35;;;7.82;;
39324;SDS011;25037;49.488;9.900;2024-03-07T13:04:36;15.52;;;7.70;;
39324;SDS011;25037;49.488;9.900;2024-03-07T13:07:09;15.40;;;7.22;;
39324;SDS011;25037;49.488;9.900;2024-03-07T13:09:36;13.35;;;6.65;;
39324;SDS011;25037;49.488;9.900;2024-03-07T13:12:07;16.75;;;8.20;;
39324;SDS011;25037;49.488;9.900;2024-03-07T13:14:36;16.52;;;7.97;;
39324;SDS011;25037;49.488;9.900;2024-03-07T13:17:03;16.63;;;7.22;;
39324;SDS011;25037;49.488;9.900;2024-03-07T13:19:30;13.95;;;6.90;;
39324;SDS011;25037;49.488;9.900;2024-03-07T13:21:58;13.93;;;7.05;;
39324;SDS011;25037;49.488;9.900;2024-03-07T13:26:52;12.70;;;6.68;;
39324;SDS011;25037;49.488;9.900;2024-03-07T13:29:19;13.57;;;6.97;;
39324;SDS011;25037;49.488;9.900;2024-03-07T13:31:52;14.93;;;6.90;;
39324;SDS011;25037;49.488;9.900;2024-03-07T13:34:22;13.02;;;7.18;;
39324;SDS011;25037;49.488;9.900;2024-03-07T13:36:52;13.30;;;7.25;;
39324;SDS011;25037;49.488;9.900;2024-03-07T13:39:18;15.57;;;7.55;;
39324;SDS011;25037;49.488;9.900;2024-03-07T13:44:14;15.98;;;7.15;;
39324;SDS011;25037;49.488;9.900;2024-03-07T13:46:41;13.38;;;6.15;;
39324;SDS011;25037;49.488;9.900;2024-03-07T13:49:08;14.75;;;7.72;;
39324;SDS011;25037;49.488;9.900;2024-03-07T13:51:43;13.77;;;7.22;;
39324;SDS011;25037;49.488;9.900;2024-03-07T13:54:17;15.32;;;8.38;;
39324;SDS011;25037;49.488;9.900;2024-03-07T13:57:07;16.05;;;6.93;;
39324;SDS011;25037;49.488;9.900;2024-03-07T13:59:54;13.38;;;6.90;;
39324;SDS011;25037;49.488;9.900;2024-03-07T14:11:45;12.57;;;6.80;;
39324;SDS011;25037;49.488;9.900;2024-03-07T14:26:39;13.10;;;5.13;;
39324;SDS011;25037;49.488;9.900;2024-03-07T14:29:50;11.77;;;6.20;;
39324;SDS011;25037;49.488;9.900;2024-03-07T14:32:53;13.23;;;6.45;;
39324;SDS011;25037;49.488;9.900;2024-03-07T14:40:28;11.48;;;5.60;;
39324;SDS011;25037;49.488;9.900;2024-03-07T14:42:55;12.95;;;6.47;;
39324;SDS011;25037;49.488;9.900;2024-03-07T14:45:26;11.95;;;6.07;;
39324;SDS011;25037;49.488;9.900;2024-03-07T14:47:57;12.77;;;6.43;;
39324;SDS011;25037;49.488;9.900;2024-03-07T14:50:25;13.90;;;6.47;;
39324;SDS011;25037;49.488;9.900;2024-03-07T14:52:55;13.07;;;6.22;;
39324;SDS011;25037;49.488;9.900;2024-03-07T14:55:22;11.93;;;5.78;;
39324;SDS011;25037;49.488;9.900;2024-03-07T15:00:16;10.18;;;4.82;;
39324;SDS011;25037;49.488;9.900;2024-03-07T15:03:00;12.88;;;5.85;;
39324;SDS011;25037;49.488;9.900;2024-03-07T15:05:27;10.85;;;4.10;;
39324;SDS011;25037;49.488;9.900;2024-03-07T15:07:55;11.70;;;5.22;;
39324;SDS011;25037;49.488;9.900;2024-03-07T15:10:26;13.70;;;6.13;;
39324;SDS011;25037;49.488;9.900;2024-03-07T15:12:54;14.85;;;6.55;;
39324;SDS011;25037;49.488;9.900;2024-03-07T15:15:21;14.00;;;5.72;;
39324;SDS011;25037;49.488;9.900;2024-03-07T15:17:50;14.18;;;6.85;;
39324;SDS011;25037;49.488;9.900;2024-03-07T15:20:17;13.50;;;6.10;;
39324;SDS011;25037;49.488;9.900;2024-03-07T15:22:53;15.30;;;6.82;;
39324;SDS011;25037;49.488;9.900;2024-03-07T15:25:21;12.70;;;5.53;;
39324;SDS011;25037;49.488;9.900;2024-03-07T15:27:50;13.88;;;6.35;;
39324;SDS011;25037;49.488;9.900;2024-03-07T15:30:18;14.15;;;6.32;;
39324;SDS011;25037;49.488;9.900;2024-03-07T15:32:46;15.38;;;6.53;;
39324;SDS011;25037;49.488;9.900;2024-03-07T15:35:13;17.67;;;6.78;;
39324;SDS011;25037;49.488;9.900;2024-03-07T15:37:47;16.98;;;6.93;;
39324;SDS011;25037;49.488;9.900;2024-03-07T15:40:18;13.90;;;6.35;;
39324;SDS011;25037;49.488;9.900;2024-03-07T15:42:47;14.98;;;6.80;;
39324;SDS011;25037;49.488;9.900;2024-03-07T15:45:18;13.45;;;6.05;;
39324;SDS011;25037;49.488;9.900;2024-03-07T15:47:46;16.33;;;7.80;;
39324;SDS011;25037;49.488;9.900;2024-03-07T15:50:15;11.75;;;5.30;;
39324;SDS011;25037;49.488;9.900;2024-03-07T15:52:45;13.50;;;6.28;;
39324;SDS011;25037;49.488;9.900;2024-03-07T15:55:20;15.70;;;6.07;;